createdAt,value
2023-01-11T00:01:56.637Z,5.69
2023-01-11T00:04:30.428Z,5.26
2023-01-11T00:06:57.897Z,5.47
2023-01-11T00:09:24.520Z,5.44
2023-01-11T00:11:51.212Z,5.11
2023-01-11T00:14:18.182Z,5.05
2023-01-11T00:16:45.035Z,5.28
2023-01-11T00:19:11.755Z,5.44
2023-01-11T00:21:38.577Z,5.30
2023-01-11T00:24:05.571Z,5.36
2023-01-11T00:26:32.157Z,5.82
2023-01-11T00:28:58.805Z,5.41
2023-01-11T00:31:25.474Z,5.37
2023-01-11T00:33:52.135Z,5.69
2023-01-11T00:36:18.876Z,5.53
2023-01-11T00:38:51.716Z,5.69
2023-01-11T00:41:37.296Z,5.30
2023-01-11T00:44:23.337Z,5.44
2023-01-11T00:47:08.727Z,5.72
2023-01-11T00:49:35.603Z,5.44
2023-01-11T00:52:02.348Z,5.24
2023-01-11T00:54:29.021Z,5.24
2023-01-11T00:56:55.612Z,5.18
2023-01-11T00:59:22.298Z,5.28
2023-01-11T01:01:48.906Z,5.08
2023-01-11T01:04:15.706Z,4.78
2023-01-11T01:06:42.367Z,5.62
2023-01-11T01:09:09.145Z,5.50
2023-01-11T01:11:35.857Z,5.66
2023-01-11T01:14:20.976Z,5.66
2023-01-11T01:16:48.098Z,5.81
2023-01-11T01:19:14.985Z,5.78
2023-01-11T01:21:41.694Z,5.08
2023-01-11T01:24:08.504Z,5.84
2023-01-11T01:26:35.132Z,5.14
2023-01-11T01:29:01.875Z,5.56
2023-01-11T01:31:28.724Z,5.35
2023-01-11T01:33:55.697Z,5.45
2023-01-11T01:36:22.393Z,5.39
2023-01-11T01:38:49.030Z,5.27
2023-01-11T01:41:15.933Z,4.99
2023-01-11T01:43:55.935Z,5.07
2023-01-11T01:46:26.209Z,5.40
2023-01-11T01:48:55.554Z,4.99
2023-01-11T01:51:25.802Z,5.09
2023-01-11T01:53:54.588Z,5.35
2023-01-11T01:56:26.764Z,5.01
2023-01-11T01:58:57.506Z,5.19
2023-01-11T02:01:42.604Z,5.07
2023-01-11T02:04:12.555Z,4.94
2023-01-11T02:06:39.565Z,4.84
2023-01-11T02:09:12.094Z,5.31
2023-01-11T02:11:43.663Z,5.35
2023-01-11T02:14:13.539Z,4.86
2023-01-11T02:16:40.417Z,5.45
2023-01-11T02:19:09.685Z,5.22
2023-01-11T02:22:02.536Z,5.01
2023-01-11T02:24:32.066Z,4.60
2023-01-11T02:27:07.857Z,4.94
2023-01-11T02:29:48.244Z,5.18
2023-01-11T02:32:20.724Z,5.26
2023-01-11T02:34:56.549Z,4.82
2023-01-11T02:37:37.692Z,5.17
2023-01-11T02:40:07.501Z,5.18
2023-01-11T02:42:52.883Z,4.92
2023-01-11T02:45:33.995Z,5.12
2023-01-11T02:48:00.694Z,5.03
2023-01-11T02:50:30.142Z,5.47
2023-01-11T02:53:19.910Z,5.40
2023-01-11T02:55:49.342Z,5.73
2023-01-11T02:58:16.732Z,5.13
2023-01-11T03:00:44.195Z,5.28
2023-01-11T03:03:14.367Z,5.39
2023-01-11T03:05:47.268Z,4.94
2023-01-11T03:08:23.138Z,5.60
2023-01-11T03:11:01.835Z,5.48
2023-01-11T03:13:31.654Z,5.24
2023-01-11T03:16:09.934Z,5.72
2023-01-11T03:18:41.934Z,5.36
2023-01-11T03:21:17.525Z,4.33
2023-01-11T03:23:53.090Z,5.41
2023-01-11T03:26:31.777Z,5.21
2023-01-11T03:29:23.184Z,5.24
2023-01-11T03:32:28.624Z,4.94
2023-01-11T03:35:02.674Z,4.96
2023-01-11T03:37:32.136Z,5.51
2023-01-11T03:40:07.665Z,4.89
2023-01-11T03:42:35.570Z,5.15
2023-01-11T03:45:03.331Z,5.06
2023-01-11T03:47:30.679Z,5.33
2023-01-11T03:50:05.379Z,5.01
2023-01-11T03:52:35.236Z,5.52
2023-01-11T03:55:06.662Z,5.52
2023-01-11T03:57:35.503Z,5.55
2023-01-11T04:00:02.601Z,5.18
2023-01-11T04:02:34.830Z,5.12
2023-01-11T04:05:01.982Z,4.75
2023-01-11T04:07:29.292Z,5.12
2023-01-11T04:09:55.903Z,5.07
2023-01-11T04:12:22.502Z,4.60
2023-01-11T04:14:49.117Z,4.95
2023-01-11T04:17:15.723Z,5.15
2023-01-11T04:19:42.484Z,4.85
2023-01-11T04:22:09.100Z,4.95
2023-01-11T04:24:35.743Z,4.57
2023-01-11T04:27:02.332Z,3.87
2023-01-11T04:29:28.983Z,4.10
2023-01-11T04:31:55.667Z,3.82
2023-01-11T04:34:22.299Z,4.36
2023-01-11T04:36:49.050Z,4.10
2023-01-11T04:39:15.657Z,4.27
2023-01-11T04:42:00.659Z,3.92
2023-01-11T04:44:27.289Z,3.79
2023-01-11T04:46:53.932Z,4.21
2023-01-11T04:49:20.558Z,4.09
2023-01-11T04:51:47.309Z,4.24
2023-01-11T04:54:15.586Z,4.29
2023-01-11T04:56:42.264Z,4.14
2023-01-11T04:59:08.861Z,4.24
2023-01-11T05:01:35.480Z,4.04
2023-01-11T05:04:02.132Z,4.42
2023-01-11T05:06:28.891Z,4.06
2023-01-11T05:08:55.606Z,4.06
2023-01-11T05:11:22.334Z,4.06
2023-01-11T05:13:49.082Z,4.12
2023-01-11T05:16:25.778Z,4.35
2023-01-11T05:18:56.034Z,4.31
2023-01-11T05:21:24.698Z,3.13
2023-01-11T05:23:51.889Z,3.89
2023-01-11T05:26:23.438Z,3.77
2023-01-11T05:28:50.514Z,4.57
2023-01-11T05:31:17.461Z,3.64
2023-01-11T05:33:44.605Z,4.87
2023-01-11T05:36:15.769Z,4.47
2023-01-11T05:38:42.916Z,4.41
2023-01-11T05:41:10.450Z,4.59
2023-01-11T05:43:56.350Z,4.71
2023-01-11T05:46:23.163Z,4.85
2023-01-11T05:48:50.041Z,4.74
2023-01-11T05:51:17.079Z,4.85
2023-01-11T05:53:44.105Z,4.15
2023-01-11T05:56:10.839Z,3.87
2023-01-11T05:58:37.522Z,3.67
2023-01-11T06:01:04.569Z,3.21
2023-01-11T06:03:31.296Z,3.71
2023-01-11T06:05:59.023Z,3.60
2023-01-11T06:08:26.591Z,3.54
2023-01-11T06:10:54.793Z,3.65
2023-01-11T06:13:28.096Z,3.07
2023-01-11T06:15:58.199Z,3.62
2023-01-11T06:18:24.929Z,3.94
2023-01-11T06:20:52.681Z,4.04
2023-01-11T06:23:19.659Z,4.05
2023-01-11T06:25:46.694Z,4.17
2023-01-11T06:28:13.622Z,4.31
2023-01-11T06:30:40.517Z,4.30
2023-01-11T06:33:08.128Z,3.98
2023-01-11T06:35:39.427Z,3.40
2023-01-11T06:38:07.000Z,3.72
2023-01-11T06:40:34.467Z,3.52
2023-01-11T06:43:01.558Z,3.70
2023-01-11T06:45:28.252Z,3.69
2023-01-11T06:47:55.031Z,3.37
2023-01-11T06:50:21.759Z,3.74
2023-01-11T06:52:55.203Z,3.56
2023-01-11T06:55:22.768Z,3.30
2023-01-11T06:57:49.952Z,3.48
2023-01-11T07:00:17.536Z,3.68
2023-01-11T07:02:45.737Z,3.76
2023-01-11T07:05:13.787Z,3.96
2023-01-11T07:07:41.283Z,4.38
2023-01-11T07:10:09.522Z,4.91
2023-01-11T07:12:56.214Z,5.05
2023-01-11T07:15:23.655Z,5.59
2023-01-11T07:17:59.180Z,5.98
2023-01-11T07:20:27.182Z,6.35
2023-01-11T07:23:00.242Z,6.69
2023-01-11T07:25:31.588Z,7.35
2023-01-11T07:28:02.515Z,7.37
2023-01-11T07:30:30.644Z,8.00
2023-01-11T07:32:58.336Z,8.47
2023-01-11T07:35:25.836Z,8.94
2023-01-11T07:37:53.191Z,9.79
2023-01-11T07:40:20.079Z,10.54
2023-01-11T07:43:09.247Z,11.14
2023-01-11T07:45:45.351Z,11.32
2023-01-11T07:48:13.463Z,9.26
2023-01-11T07:50:42.744Z,7.86
2023-01-11T07:53:11.108Z,7.34
2023-01-11T07:55:39.936Z,9.03
2023-01-11T07:58:07.447Z,9.50
2023-01-11T08:00:34.479Z,10.53
2023-01-11T08:03:02.871Z,10.47
2023-01-11T08:05:30.162Z,10.58
2023-01-11T08:07:56.890Z,10.01
2023-01-11T08:10:24.011Z,8.68
2023-01-11T08:13:29.309Z,9.15
2023-01-11T08:15:57.558Z,9.14
2023-01-11T08:18:25.404Z,9.64
2023-01-11T08:20:54.415Z,9.91
2023-01-11T08:23:21.181Z,9.87
2023-01-11T08:25:48.221Z,8.32
2023-01-11T08:28:15.498Z,8.95
2023-01-11T08:30:46.628Z,8.75
2023-01-11T08:33:13.564Z,7.80
2023-01-11T08:35:43.109Z,8.45
2023-01-11T08:38:10.276Z,8.57
2023-01-11T08:40:37.041Z,7.97
2023-01-11T08:43:24.443Z,9.12
2023-01-11T08:46:00.491Z,8.98
2023-01-11T08:48:29.444Z,10.44
2023-01-11T08:50:56.141Z,10.27
2023-01-11T08:53:22.941Z,10.39
2023-01-11T08:55:51.051Z,10.43
2023-01-11T08:58:20.052Z,11.15
2023-01-11T09:00:47.490Z,11.19
2023-01-11T09:03:15.381Z,11.88
2023-01-11T09:05:42.453Z,12.78
2023-01-11T09:08:09.371Z,13.44
2023-01-11T09:10:36.161Z,13.76
2023-01-11T09:13:02.959Z,14.47
2023-01-11T09:15:30.012Z,14.98
2023-01-11T09:17:59.272Z,14.82
2023-01-11T09:20:26.028Z,15.16
2023-01-11T09:22:53.212Z,15.20
2023-01-11T09:25:20.486Z,15.45
2023-01-11T09:27:48.109Z,15.59
2023-01-11T09:30:16.381Z,15.83
2023-01-11T09:32:43.191Z,16.27
2023-01-11T09:35:10.245Z,16.26
2023-01-11T09:37:40.691Z,16.37
2023-01-11T09:40:13.874Z,16.52
2023-01-11T09:42:41.281Z,16.32
2023-01-11T09:45:17.770Z,16.10
2023-01-11T09:47:45.010Z,16.00
2023-01-11T09:50:14.940Z,16.42
2023-01-11T09:52:46.041Z,16.37
2023-01-11T09:55:15.518Z,16.09
2023-01-11T09:58:23.247Z,15.82
2023-01-11T10:01:03.509Z,15.48
2023-01-11T10:03:33.390Z,15.18
2023-01-11T10:06:06.461Z,14.63
2023-01-11T10:18:30.558Z,14.56
2023-01-11T10:18:30.855Z,15.09
2023-01-11T10:20:44.542Z,13.03
2023-01-11T10:23:23.507Z,14.18
2023-01-11T10:25:54.801Z,14.94
2023-01-11T10:28:32.101Z,15.15
2023-01-11T10:30:59.110Z,13.66
2023-01-11T10:33:42.842Z,14.16
2023-01-11T10:36:35.663Z,13.24
2023-01-11T10:39:31.778Z,14.77
2023-01-11T10:42:08.111Z,14.26
2023-01-11T10:44:39.377Z,14.94
2023-01-11T10:47:11.761Z,14.68
2023-01-11T10:49:57.550Z,14.97
2023-01-11T10:52:28.869Z,15.31
2023-01-11T10:54:57.631Z,13.98
2023-01-11T10:57:39.102Z,14.95
2023-01-11T11:00:34.317Z,15.09
2023-01-11T11:03:09.451Z,14.47
2023-01-11T11:05:55.973Z,14.96
2023-01-11T11:08:38.383Z,14.56
2023-01-11T11:11:10.763Z,14.36
2023-01-11T11:13:37.489Z,13.77
2023-01-11T11:16:12.950Z,14.06
2023-01-11T11:18:39.933Z,13.81
2023-01-11T11:21:10.853Z,13.67
2023-01-11T11:23:38.491Z,13.64
2023-01-11T11:26:06.972Z,13.81
2023-01-11T11:28:33.895Z,14.06
2023-01-11T11:31:03.372Z,12.83
2023-01-11T11:33:37.802Z,13.59
2023-01-11T11:36:11.111Z,13.26
2023-01-11T11:38:56.563Z,13.87
2023-01-11T11:41:23.335Z,13.83
2023-01-11T11:43:50.177Z,13.99
2023-01-11T11:46:20.154Z,14.03
2023-01-11T11:49:05.927Z,14.44
2023-01-11T11:51:32.890Z,13.95
2023-01-11T11:53:59.855Z,14.24
2023-01-11T11:56:29.900Z,14.23
2023-01-11T11:58:58.081Z,14.62
2023-01-11T12:01:27.930Z,14.61
2023-01-11T12:03:57.299Z,14.49
2023-01-11T12:06:25.563Z,14.90
2023-01-11T12:08:52.951Z,14.79
2023-01-11T12:11:22.657Z,13.91
2023-01-11T12:14:14.720Z,14.54
2023-01-11T12:16:42.877Z,14.37
2023-01-11T12:19:26.261Z,13.62
2023-01-11T12:21:53.227Z,13.27
2023-01-11T12:24:20.507Z,14.07
2023-01-11T12:26:55.166Z,14.26
2023-01-11T12:29:24.971Z,14.45
2023-01-11T12:32:02.281Z,14.42
2023-01-11T12:34:47.343Z,13.48
2023-01-11T12:37:32.843Z,13.74
2023-01-11T12:40:10.288Z,13.86
2023-01-11T12:42:45.899Z,14.09
2023-01-11T12:45:19.163Z,14.28
2023-01-11T12:48:03.332Z,13.52
2023-01-11T12:50:48.554Z,14.41
2023-01-11T12:53:18.412Z,14.23
2023-01-11T12:55:45.181Z,14.49
2023-01-11T12:58:22.973Z,14.49
2023-01-11T13:01:08.625Z,13.95
2023-01-11T13:03:56.266Z,14.31
2023-01-11T13:06:25.865Z,13.27
2023-01-11T13:08:53.475Z,14.29
2023-01-11T13:11:38.897Z,14.23
2023-01-11T13:14:08.619Z,14.39
2023-01-11T13:16:50.840Z,14.67
2023-01-11T13:19:28.275Z,14.99
2023-01-11T13:21:56.646Z,15.06
2023-01-11T13:24:26.622Z,15.32
2023-01-11T13:26:59.863Z,15.70
2023-01-11T13:29:26.591Z,15.45
2023-01-11T13:31:54.968Z,15.20
2023-01-11T13:34:27.927Z,15.36
2023-01-11T13:37:03.581Z,15.56
2023-01-11T13:39:32.361Z,15.50
2023-01-11T13:42:00.735Z,15.79
2023-01-11T13:44:43.358Z,16.00
2023-01-11T13:47:28.766Z,15.37
2023-01-11T13:50:10.478Z,15.65
2023-01-11T13:52:56.008Z,15.78
2023-01-11T13:55:26.998Z,15.43
2023-01-11T13:58:09.158Z,15.73
2023-01-11T14:01:01.174Z,15.96
2023-01-11T14:03:37.187Z,16.01
2023-01-11T14:06:28.072Z,16.11
2023-01-11T14:09:19.051Z,16.19
2023-01-11T14:12:01.243Z,15.93
2023-01-11T14:14:37.597Z,15.90
2023-01-11T14:17:23.282Z,16.11
2023-01-11T14:19:57.368Z,15.95
2023-01-11T14:22:27.420Z,15.80
2023-01-11T14:24:59.174Z,15.89
2023-01-11T14:27:51.207Z,15.86
2023-01-11T14:30:32.337Z,15.69
2023-01-11T14:33:02.207Z,15.70
2023-01-11T14:35:40.364Z,15.25
2023-01-11T14:38:22.421Z,15.10
2023-01-11T14:40:49.132Z,15.10
2023-01-11T14:43:36.265Z,14.88
2023-01-11T14:46:13.287Z,14.64
2023-01-11T14:48:51.779Z,14.30
2023-01-11T14:51:25.924Z,14.37
2023-01-11T14:54:12.169Z,14.09
2023-01-11T14:56:44.940Z,14.01
2023-01-11T14:59:20.994Z,13.91
2023-01-11T15:02:03.038Z,13.76
2023-01-11T15:04:34.613Z,13.65
2023-01-11T15:07:01.648Z,13.78
2023-01-11T15:09:48.589Z,13.61
2023-01-11T15:12:18.140Z,13.28
2023-01-11T15:15:19.596Z,13.35
2023-01-11T15:18:12.213Z,13.22
2023-01-11T15:20:51.929Z,13.06
2023-01-11T15:23:18.914Z,12.88
2023-01-11T15:25:49.818Z,12.86
2023-01-11T15:28:35.149Z,12.78
2023-01-11T15:31:05.729Z,12.67
2023-01-11T15:33:46.115Z,12.45
2023-01-11T15:36:13.432Z,12.23
2023-01-11T15:38:52.363Z,12.03
2023-01-11T15:41:39.294Z,11.71
2023-01-11T15:44:06.025Z,11.51
2023-01-11T15:46:54.036Z,11.31
2023-01-11T15:49:43.813Z,11.39
2023-01-11T15:52:13.667Z,11.33
2023-01-11T15:54:43.517Z,11.17
2023-01-11T15:57:13.199Z,10.51
2023-01-11T16:00:00.745Z,10.44
2023-01-11T16:02:27.400Z,10.23
2023-01-11T16:04:59.172Z,10.20
2023-01-11T16:07:42.173Z,10.11
2023-01-11T16:10:30.934Z,10.20
2023-01-11T16:13:09.094Z,10.27
2023-01-11T16:15:49.291Z,10.23
2023-01-11T16:18:38.325Z,10.19
2023-01-11T16:21:05.302Z,10.23
2023-01-11T16:23:32.811Z,9.95
2023-01-11T16:26:00.215Z,9.82
2023-01-11T16:28:27.908Z,9.45
2023-01-11T16:30:59.231Z,9.57
2023-01-11T16:33:27.362Z,9.22
2023-01-11T16:36:12.887Z,9.28
2023-01-11T16:38:56.822Z,9.10
2023-01-11T16:41:26.218Z,9.07
2023-01-11T16:44:19.558Z,8.91
2023-01-11T16:46:46.468Z,8.92
2023-01-11T16:49:19.514Z,9.02
2023-01-11T16:51:48.037Z,8.90
2023-01-11T16:54:21.243Z,8.87
2023-01-11T16:56:49.663Z,8.81
2023-01-11T16:59:19.334Z,8.75
2023-01-11T17:01:53.884Z,8.71
2023-01-11T17:04:32.931Z,8.40
2023-01-11T17:07:19.715Z,8.48
2023-01-11T17:09:46.608Z,8.31
2023-01-11T17:12:17.230Z,8.07
2023-01-11T17:14:59.247Z,8.00
2023-01-11T17:17:28.100Z,7.92
2023-01-11T17:19:56.200Z,7.84
2023-01-11T17:22:27.189Z,7.38
2023-01-11T17:24:55.868Z,7.61
2023-01-11T17:27:25.744Z,7.61
2023-01-11T17:29:54.368Z,7.63
2023-01-11T17:32:39.147Z,7.72
2023-01-11T17:35:07.659Z,7.54
2023-01-11T17:37:36.803Z,5.62
2023-01-11T17:40:07.778Z,6.16
2023-01-11T17:42:53.391Z,6.23
2023-01-11T17:45:22.199Z,6.34
2023-01-11T17:47:50.645Z,6.50
2023-01-11T17:50:31.519Z,6.22
2023-01-11T17:53:02.465Z,5.97
2023-01-11T17:55:29.506Z,5.43
2023-01-11T17:58:18.045Z,4.99
2023-01-11T18:01:08.908Z,5.20
2023-01-11T18:03:40.567Z,5.36
2023-01-11T18:06:13.499Z,5.46
2023-01-11T18:08:45.582Z,4.40
2023-01-11T18:11:12.278Z,5.05
2023-01-11T18:13:39.072Z,5.57
2023-01-11T18:16:05.931Z,5.20
2023-01-11T18:18:41.909Z,5.10
2023-01-11T18:21:27.198Z,4.27
2023-01-11T18:24:09.186Z,4.93
2023-01-11T18:26:36.938Z,4.77
2023-01-11T18:29:17.920Z,4.64
2023-01-11T18:31:44.666Z,4.01
2023-01-11T18:34:11.535Z,3.98
2023-01-11T18:36:38.298Z,4.14
2023-01-11T18:39:11.845Z,4.27
2023-01-11T18:41:57.954Z,4.28
2023-01-11T18:44:25.368Z,4.28
2023-01-11T18:46:52.108Z,3.62
2023-01-11T18:49:18.833Z,3.70
2023-01-11T18:51:45.532Z,3.50
2023-01-11T18:54:16.145Z,3.62
2023-01-11T18:56:42.860Z,2.83
2023-01-11T18:59:09.760Z,2.32
2023-01-11T19:01:52.751Z,2.87
2023-01-11T19:04:23.802Z,3.76
2023-01-11T19:06:52.490Z,4.15
2023-01-11T19:09:19.482Z,2.89
2023-01-11T19:11:46.192Z,2.97
2023-01-11T19:14:12.926Z,3.75
2023-01-11T19:16:39.686Z,4.23
2023-01-11T19:19:06.589Z,4.09
2023-01-11T19:21:33.381Z,4.22
2023-01-11T19:24:00.012Z,4.53
2023-01-11T19:26:27.981Z,4.57
2023-01-11T19:28:54.670Z,4.86
2023-01-11T19:31:21.509Z,4.62
2023-01-11T19:33:48.344Z,4.86
2023-01-11T19:36:15.192Z,5.08
2023-01-11T19:38:41.905Z,5.00
2023-01-11T19:41:09.373Z,5.10
2023-01-11T19:43:36.726Z,5.37
2023-01-11T19:46:04.195Z,4.43
2023-01-11T19:48:33.063Z,4.98
2023-01-11T19:51:03.665Z,5.25
2023-01-11T19:53:31.084Z,5.05
2023-01-11T19:56:04.944Z,5.33
2023-01-11T19:58:31.824Z,5.37
2023-01-11T20:00:58.682Z,5.32
2023-01-11T20:03:26.011Z,5.36
2023-01-11T20:05:52.843Z,5.19
2023-01-11T20:08:19.654Z,5.29
2023-01-11T20:10:47.743Z,5.28
2023-01-11T20:13:14.669Z,4.86
2023-01-11T20:15:41.520Z,5.14
2023-01-11T20:18:08.327Z,5.37
2023-01-11T20:20:35.028Z,5.29
2023-01-11T20:23:01.777Z,5.64
2023-01-11T20:25:28.479Z,5.75
2023-01-11T20:27:55.222Z,5.27
2023-01-11T20:30:21.902Z,5.52
2023-01-11T20:32:48.572Z,5.23
2023-01-11T20:35:15.317Z,5.46
2023-01-11T20:37:42.158Z,5.31
2023-01-11T20:40:09.237Z,5.45
2023-01-11T20:42:35.983Z,5.54
2023-01-11T20:45:02.664Z,5.57
2023-01-11T20:47:29.404Z,5.58
2023-01-11T20:49:56.686Z,5.65
2023-01-11T20:52:23.618Z,5.81
2023-01-11T20:54:50.306Z,5.74
2023-01-11T20:57:17.063Z,5.59
2023-01-11T20:59:43.978Z,5.40
2023-01-11T21:02:11.470Z,5.45
2023-01-11T21:04:38.286Z,5.62
2023-01-11T21:07:05.188Z,5.78
2023-01-11T21:09:31.820Z,5.96
2023-01-11T21:11:58.649Z,5.80
2023-01-11T21:14:25.312Z,5.61
2023-01-11T21:16:55.224Z,5.53
2023-01-11T21:19:22.185Z,5.60
2023-01-11T21:21:49.817Z,5.72
2023-01-11T21:24:16.830Z,5.31
2023-01-11T21:26:45.895Z,5.55
2023-01-11T21:29:13.969Z,5.69
2023-01-11T21:31:40.966Z,5.41
2023-01-11T21:34:09.936Z,5.27
2023-01-11T21:36:36.575Z,5.39
2023-01-11T21:39:03.720Z,5.67
2023-01-11T21:41:50.879Z,5.70
2023-01-11T21:44:18.215Z,5.91
2023-01-11T21:46:45.509Z,5.45
2023-01-11T21:49:12.725Z,5.46
2023-01-11T21:51:39.963Z,5.58
2023-01-11T21:54:07.894Z,5.64
2023-01-11T21:56:34.758Z,5.51
2023-01-11T21:59:01.803Z,5.64
2023-01-11T22:01:28.541Z,5.96
2023-01-11T22:03:55.311Z,6.19
2023-01-11T22:06:22.372Z,6.20
2023-01-11T22:08:49.164Z,6.13
2023-01-11T22:11:16.677Z,6.18
2023-01-11T22:13:43.595Z,6.43
2023-01-11T22:16:15.391Z,6.53
2023-01-11T22:18:42.762Z,6.55
2023-01-11T22:21:18.147Z,6.57
2023-01-11T22:23:45.735Z,6.47
2023-01-11T22:26:17.360Z,6.52
2023-01-11T22:29:03.316Z,6.68
2023-01-11T22:31:30.899Z,6.68
2023-01-11T22:33:57.890Z,6.74
2023-01-11T22:36:25.543Z,6.85
2023-01-11T22:38:52.807Z,6.80
2023-01-11T22:41:19.709Z,6.88
2023-01-11T22:43:46.550Z,6.70
2023-01-11T22:46:17.682Z,6.54
2023-01-11T22:48:44.583Z,6.81
2023-01-11T22:51:11.868Z,6.45
2023-01-11T22:53:39.032Z,6.23
2023-01-11T22:56:05.961Z,5.99
2023-01-11T22:58:32.859Z,6.02
2023-01-11T23:01:09.300Z,6.26
2023-01-11T23:03:36.058Z,6.18
2023-01-11T23:06:02.778Z,6.46
2023-01-11T23:08:29.932Z,6.48
2023-01-11T23:11:00.179Z,6.44
2023-01-11T23:13:45.559Z,6.53
2023-01-11T23:16:14.921Z,6.61
2023-01-11T23:18:41.893Z,6.68
2023-01-11T23:21:08.689Z,6.79
2023-01-11T23:23:35.602Z,6.69
2023-01-11T23:26:02.380Z,6.75
2023-01-11T23:28:30.921Z,6.92
2023-01-11T23:30:57.573Z,6.98
2023-01-11T23:33:24.444Z,6.77
2023-01-11T23:35:58.300Z,6.91
2023-01-11T23:38:25.385Z,6.66
2023-01-11T23:41:10.720Z,6.89
2023-01-11T23:43:38.835Z,6.77
2023-01-11T23:46:24.835Z,6.72
2023-01-11T23:48:51.687Z,6.78
2023-01-11T23:51:18.394Z,6.40
2023-01-11T23:53:45.117Z,6.73
2023-01-11T23:56:11.838Z,6.80
2023-01-11T23:58:38.666Z,6.68
